Aviation Digital Data Service (ADDS)

Output produced by METARs form (1350 UTC 22 October 2014)
found at http://www.aviationweather.gov/adds/metars/
 
KSEG 221319Z AUTO 35011G22KT 10SM SCT021 OVC031 12/08 A3001 RMK AO2 T01220083
KSEG 221253Z AUTO 35011KT 10SM OVC021 12/08 A3001 RMK AO2 SLP162 T01170083
KSEG 221153Z AUTO 34011KT 10SM BKN019 OVC039 12/08 A2999 RMK AO2 SLP155 T01220083 10122 20117 53013
KSEG 221053Z AUTO 34009KT 10SM OVC039 12/08 A2997 RMK AO2 SLP149 T01220083
KSEG 220953Z AUTO 35006KT 10SM OVC030 12/08 A2996 RMK AO2 SLP144 T01220083
KSEG 220934Z AUTO 35008KT 10SM BKN028 OVC037 12/08 A2996 RMK AO2 T01220083
KSEG 220853Z AUTO 36010G15KT 10SM OVC030 12/08 A2995 RMK AO2 SLP141 T01220083 53003
KSEG 220820Z AUTO 34009KT 10SM OVC030 12/08 A2994 RMK AO2 T01220083
KSEG 220753Z AUTO 35009KT 10SM OVC029 12/08 A2994 RMK AO2 SLP137 T01220083
KSEG 220750Z AUTO 35009KT 10SM OVC029 12/08 A2994 RMK AO2
KSEG 220653Z AUTO 35008KT 10SM OVC033 12/08 A2994 RMK AO2 SLP138 T01220083
KSEG 220553Z AUTO 35006KT 10SM FEW050 BKN070 BKN090 12/09 A2993 RMK AO2 SLP135 T01170089 10128 20094 58007
KSEG 220453Z AUTO 35006KT 10SM FEW030 BKN041 OVC050 12/09 A2994 RMK AO2 SLP138 T01170089 401720078
KSEG 220353Z AUTO 00000KT 10SM BKN041 OVC055 10/08 A2995 RMK AO2 SLP142 T01000083
KSEG 220253Z AUTO 00000KT 10SM FEW040 BKN060 11/08 A2995 RMK AO2 SLP143 T01060083 52018
KSEG 220153Z AUTO 00000KT 10SM FEW045 11/08 A2993 RMK AO2 SLP137 T01060083
KSEG 220053Z AUTO 34004KT 10SM FEW060 BKN110 12/08 A2991 RMK AO2 SLP129 T01170083
KSEG 212353Z AUTO 36003KT 10SM OVC110 13/09 A2990 RMK AO2 SLP124 T01280089 10172 20122 51018
KSEG 212253Z AUTO 00000KT 10SM FEW034 OVC100 13/09 A2988 RMK AO2 SLP119 T01280089
KSEG 212153Z AUTO 05003KT 10SM OVC100 15/08 A2986 RMK AO2 LTG DSNT W SLP111 T01500083
KSEG 212053Z AUTO 04004KT 10SM SCT055 OVC100 17/08 A2984 RMK AO2 SLP105 T01670083 55002
KSEG 211953Z AUTO 02006KT 10SM BKN033 17/08 A2984 RMK AO2 SLP103 T01720083
KSEG 211853Z AUTO 31004KT 10SM SCT036 OVC048 16/08 A2984 RMK AO2 SLP104 T01560083
KSEG 211810Z AUTO 00000KT 10SM SCT028 OVC033 15/09 A2984 RMK AO2 T01500089
KSEG 211753Z AUTO 00000KT 10SM BKN029 BKN036 OVC080 15/09 A2985 RMK AO2 SLP106 T01500089 10156 20083 58007
KSEG 211744Z AUTO 08003KT 10SM BKN028 OVC075 15/09 A2985 RMK AO2 T01500094
KSEG 211653Z AUTO 00000KT 10SM FEW022 SCT026 OVC050 14/09 A2986 RMK AO2 SLP113 T01440089
KSEG 211553Z AUTO 00000KT 10SM BKN050 OVC070 13/09 A2987 RMK AO2 SLP116 T01330094
KSEG 211453Z AUTO 00000KT 9SM FEW013 BKN046 OVC075 13/09 A2987 RMK AO2 SLP115 T01280094 50003
KSEG 211353Z AUTO 17005KT 8SM BKN042 OVC075 12/09 A2988 RMK AO2 SLP117 T01220094
KSEG 211253Z AUTO 00000KT 9SM OVC075 11/09 A2987 RMK AO2 SLP115 T01110089
KSEG 211153Z AUTO 00000KT 7SM FEW065 SCT080 08/07 A2986 RMK AO2 SLP112 T00830072 10111 20078 53004
KSEG 211053Z AUTO 00000KT 10SM BKN075 09/08 A2985 RMK AO2 SLP108 T00890078
KSEG 210953Z AUTO 00000KT 10SM SCT048 OVC085 10/08 A2985 RMK AO2 SLP108 T01000078
KSEG 210853Z AUTO 00000KT 10SM FEW055 OVC075 11/08 A2985 RMK AO2 SLP108 T01060083 56010
KSEG 210753Z AUTO 00000KT 10SM BKN055 OVC070 11/08 A2986 RMK AO2 SLP109 T01110078
KSEG 210653Z AUTO 00000KT 10SM SCT055 BKN070 OVC080 11/07 A2987 RMK AO2 SLP115 T01110072
KSEG 210553Z AUTO 00000KT 10SM FEW055 BKN090 OVC110 11/07 A2988 RMK AO2 RAE07 SLP119 P0000 60000 T01110067 10139 20100 58013
KSEG 210453Z AUTO 00000KT 10SM -RA BKN065 OVC080 11/08 A2990 RMK AO2 RAB38 SLP125 P0000 T01060078 401610017
KSEG 210353Z AUTO 00000KT 10SM FEW085 OVC110 10/07 A2990 RMK AO2 SLP127 T01000072
KSEG 210253Z AUTO 00000KT 10SM BKN095 10/06 A2992 RMK AO2 RAB07E17 SLP132 P0000 60000 T01000061 58002
KSEG 210153Z AUTO 00000KT 10SM OVC090 11/07 A2993 RMK AO2 SLP135 T01110067